Time;durP1;ratioP1;P1;durP2;ratioP2;P2;SDS_P1;SDS_P2;PMS_P1;PMS_P2;Temp;Humidity;BMP_temperature;BMP_pressure;BME280_temperature;BME280_humidity;BME280_pressure;Samples;Min_cycle;Max_cycle;Signal;HPM_P1;HPM_P2
2022/07/25 00:01:42;;;;;;;12.50;11.13;;;23.10;1.00;;;;;;4930141;29;20615;-75
2022/07/25 00:04:08;;;;;;;13.17;10.77;;;23.10;1.00;;;;;;4928239;29;20170;-75
2022/07/25 00:06:34;;;;;;;12.30;9.90;;;23.00;1.00;;;;;;4931480;29;20165;-75
2022/07/25 00:09:00;;;;;;;13.23;10.90;;;23.00;1.00;;;;;;4931073;29;20683;-75
2022/07/25 00:11:26;;;;;;;16.80;11.33;;;23.00;1.00;;;;;;4928483;29;20188;-74
2022/07/25 00:13:52;;;;;;;14.03;11.23;;;23.00;1.00;;;;;;4931690;29;20204;-75
2022/07/25 00:16:17;;;;;;;18.70;10.53;;;23.00;1.00;;;;;;4925285;29;20180;-74
2022/07/25 00:18:43;;;;;;;13.03;9.77;;;22.90;1.00;;;;;;4931225;29;20604;-74
2022/07/25 00:21:09;;;;;;;12.30;10.90;;;22.90;1.00;;;;;;4929816;29;20236;-74
2022/07/25 00:23:34;;;;;;;15.57;11.53;;;22.80;1.00;;;;;;4931135;29;20640;-74
2022/07/25 00:26:00;;;;;;;15.93;10.27;;;22.80;1.00;;;;;;4944553;29;20185;-74
2022/07/25 00:28:25;;;;;;;13.73;10.50;;;22.90;1.00;;;;;;4930518;29;20584;-74
2022/07/25 00:30:51;;;;;;;12.57;10.50;;;23.00;1.00;;;;;;4946391;28;20488;-74
2022/07/25 00:33:17;;;;;;;12.20;10.47;;;22.90;1.00;;;;;;4930720;29;20181;-74
2022/07/25 00:35:42;;;;;;;12.20;10.90;;;22.90;1.00;;;;;;4931413;29;20198;-74
2022/07/25 00:38:08;;;;;;;11.60;10.40;;;22.80;1.00;;;;;;4929311;29;20466;-74
2022/07/25 00:40:34;;;;;;;12.30;11.00;;;22.80;1.00;;;;;;4923313;29;20264;-74
2022/07/25 00:42:59;;;;;;;11.80;10.17;;;22.80;1.00;;;;;;4929302;29;20173;-74
2022/07/25 00:45:25;;;;;;;16.20;10.60;;;22.80;1.00;;;;;;4928699;29;20181;-74
2022/07/25 00:47:50;;;;;;;13.40;10.57;;;22.90;1.00;;;;;;4934793;29;20267;-74
2022/07/25 00:50:16;;;;;;;12.23;10.27;;;22.70;1.00;;;;;;4934204;29;20216;-74
2022/07/25 00:52:42;;;;;;;14.80;10.50;;;22.70;1.00;;;;;;4948365;29;20192;-74
2022/07/25 00:55:07;;;;;;;12.30;10.60;;;22.70;1.00;;;;;;4934736;29;20184;-74
2022/07/25 00:57:33;;;;;;;12.60;10.17;;;22.60;1.00;;;;;;4934080;29;20169;-74
2022/07/25 00:59:58;;;;;;;13.37;11.00;;;22.70;1.00;;;;;;4934165;29;20552;-74
2022/07/25 01:02:24;;;;;;;11.73;10.30;;;22.60;1.00;;;;;;4932952;29;20706;-74
2022/07/25 01:04:50;;;;;;;13.00;10.57;;;22.70;1.00;;;;;;4933595;29;20660;-75
2022/07/25 01:07:15;;;;;;;10.80;9.70;;;22.70;1.00;;;;;;4934739;29;20177;-74
2022/07/25 01:09:41;;;;;;;12.07;10.40;;;22.70;1.00;;;;;;4931279;29;20662;-74
2022/07/25 01:12:07;;;;;;;11.93;10.23;;;22.60;1.00;;;;;;4933323;29;20189;-74
2022/07/25 01:14:32;;;;;;;12.80;10.20;;;22.60;1.00;;;;;;4933499;29;20185;-74
2022/07/25 01:16:58;;;;;;;12.80;10.00;;;22.60;1.00;;;;;;4933511;29;20549;-74
2022/07/25 01:19:23;;;;;;;12.27;10.80;;;22.60;1.00;;;;;;4933083;29;20185;-74
2022/07/25 01:21:49;;;;;;;12.20;9.93;;;22.60;1.00;;;;;;4933612;29;20305;-74
2022/07/25 01:24:14;;;;;;;15.60;10.53;;;22.60;1.00;;;;;;4933437;29;20265;-74
2022/07/25 01:26:40;;;;;;;12.53;10.60;;;22.60;1.00;;;;;;4947392;29;20697;-74
2022/07/25 01:29:05;;;;;;;12.43;10.67;;;22.40;1.00;;;;;;4931917;29;20676;-74
2022/07/25 01:31:31;;;;;;;15.50;10.37;;;22.70;1.00;;;;;;4947525;28;20204;-74
2022/07/25 01:33:57;;;;;;;13.27;10.23;;;22.80;1.00;;;;;;4934234;29;20656;-74
2022/07/25 01:36:22;;;;;;;10.80;8.70;;;22.90;1.00;;;;;;4934082;29;20173;-74
2022/07/25 01:38:48;;;;;;;13.30;9.57;;;23.20;1.00;;;;;;4931642;29;20304;-74
2022/07/25 01:41:13;;;;;;;11.47;9.30;;;23.40;1.00;;;;;;4945597;28;20215;-74
2022/07/25 01:43:39;;;;;;;10.07;8.83;;;23.80;1.00;;;;;;4929756;29;20180;-74
2022/07/25 01:46:04;;;;;;;11.70;10.10;;;24.00;1.00;;;;;;4933573;29;20177;-73
2022/07/25 01:48:30;;;;;;;11.10;9.87;;;24.20;1.00;;;;;;4929900;28;20181;-74
2022/07/25 01:50:56;;;;;;;10.93;9.43;;;24.30;1.00;;;;;;4932599;29;20730;-74
2022/07/25 01:53:21;;;;;;;11.20;10.00;;;24.20;1.00;;;;;;4933156;29;20526;-74
2022/07/25 01:55:46;;;;;;;13.00;9.60;;;24.30;1.00;;;;;;4945651;29;20276;-74
2022/07/25 01:58:12;;;;;;;13.10;9.67;;;24.40;1.00;;;;;;4931526;28;20184;-74
2022/07/25 02:00:38;;;;;;;10.63;9.53;;;24.30;1.00;;;;;;4924941;29;20750;-74
2022/07/25 02:05:48;;;;;;;11.83;9.53;;;24.00;1.00;;;;;;4932418;29;20466;-74
2022/07/25 02:08:14;;;;;;;12.00;10.20;;;23.80;1.00;;;;;;4933308;29;20911;-74
2022/07/25 02:10:40;;;;;;;13.90;10.63;;;23.70;1.00;;;;;;4932256;29;20227;-74
2022/07/25 02:13:06;;;;;;;11.03;9.93;;;23.50;1.00;;;;;;4932891;29;20856;-74
2022/07/25 02:15:31;;;;;;;13.50;10.80;;;23.30;1.00;;;;;;4932448;29;20239;-74
2022/07/25 02:17:57;;;;;;;12.43;10.60;;;23.20;1.00;;;;;;4932928;29;20248;-74
2022/07/25 02:20:22;;;;;;;11.87;10.57;;;23.00;1.00;;;;;;4946124;29;20200;-74
2022/07/25 02:22:48;;;;;;;12.67;9.80;;;22.90;1.00;;;;;;4932607;29;20392;-74
2022/07/25 02:25:14;;;;;;;14.30;10.80;;;22.90;1.00;;;;;;4933205;29;20191;-74
2022/07/25 02:27:39;;;;;;;11.73;10.47;;;22.90;1.00;;;;;;4931444;29;20195;-74
2022/07/25 02:30:05;;;;;;;14.10;10.97;;;22.80;1.00;;;;;;4933126;29;20227;-74
2022/07/25 02:32:31;;;;;;;13.17;10.70;;;22.90;1.00;;;;;;4946801;29;20621;-74
2022/07/25 02:34:57;;;;;;;12.13;10.63;;;22.80;1.00;;;;;;4931169;29;20436;-74
2022/07/25 02:37:23;;;;;;;13.43;10.47;;;22.70;1.00;;;;;;4927824;29;20184;-74
2022/07/25 02:39:49;;;;;;;12.57;10.30;;;22.80;1.00;;;;;;4932688;29;20802;-74
2022/07/25 02:42:14;;;;;;;12.50;10.97;;;22.80;1.00;;;;;;4931228;29;20219;-74
2022/07/25 02:44:40;;;;;;;14.00;11.00;;;22.80;1.00;;;;;;4932011;29;20168;-74
2022/07/25 02:47:05;;;;;;;12.70;10.43;;;23.00;1.00;;;;;;4932154;29;20185;-74
2022/07/25 02:49:31;;;;;;;15.27;10.53;;;23.10;1.00;;;;;;4932448;29;20276;-74
2022/07/25 02:51:56;;;;;;;12.10;10.47;;;23.10;1.00;;;;;;4931601;29;20207;-74
2022/07/25 02:54:22;;;;;;;16.47;10.87;;;23.20;1.00;;;;;;4932797;29;20184;-74
2022/07/25 02:56:47;;;;;;;12.90;11.33;;;23.20;1.00;;;;;;4931061;29;20197;-75
2022/07/25 02:59:13;;;;;;;13.37;10.90;;;23.20;1.00;;;;;;4933118;29;20192;-74
2022/07/25 03:01:38;;;;;;;13.23;10.70;;;23.30;1.00;;;;;;4931540;29;20216;-74
2022/07/25 03:04:04;;;;;;;11.57;10.37;;;23.30;1.00;;;;;;4946957;29;20185;-74
2022/07/25 03:06:29;;;;;;;12.90;10.70;;;23.30;1.00;;;;;;4931512;29;20173;-75
2022/07/25 03:08:55;;;;;;;12.90;11.17;;;23.30;1.00;;;;;;4931528;29;20236;-74
2022/07/25 03:11:21;;;;;;;14.83;10.93;;;23.10;1.00;;;;;;4930751;29;20599;-74
2022/07/25 03:13:46;;;;;;;12.40;10.50;;;23.10;1.00;;;;;;4932189;29;20255;-74
2022/07/25 03:16:12;;;;;;;14.43;11.30;;;23.00;1.00;;;;;;4931713;29;20185;-74
2022/07/25 03:18:37;;;;;;;11.40;10.20;;;22.90;1.00;;;;;;4932097;29;20181;-74
2022/07/25 03:21:03;;;;;;;12.47;10.67;;;22.80;1.00;;;;;;4931808;29;20694;-74
2022/07/25 03:23:29;;;;;;;13.73;10.73;;;22.80;1.00;;;;;;4932287;29;20173;-74
2022/07/25 03:25:55;;;;;;;12.83;10.50;;;22.70;1.00;;;;;;4945070;29;20189;-74
2022/07/25 03:28:21;;;;;;;14.30;11.33;;;22.70;1.00;;;;;;4932337;29;20435;-75
2022/07/25 03:30:46;;;;;;;13.10;11.10;;;22.70;1.00;;;;;;4931648;29;20200;-74
2022/07/25 03:33:12;;;;;;;13.70;11.10;;;22.70;1.00;;;;;;4930483;29;20181;-74
2022/07/25 03:35:37;;;;;;;12.80;10.90;;;22.70;1.00;;;;;;4930938;29;20224;-74
2022/07/25 03:38:03;;;;;;;14.50;11.40;;;22.70;1.00;;;;;;4946355;29;20173;-74
2022/07/25 03:40:30;;;;;;;14.43;11.00;;;23.20;1.00;;;;;;4931172;29;20259;-74
2022/07/25 03:42:56;;;;;;;15.07;11.43;;;22.80;1.00;;;;;;4931103;29;20169;-74
2022/07/25 03:45:21;;;;;;;12.20;10.90;;;22.80;1.00;;;;;;4930340;29;20432;-74
2022/07/25 03:47:47;;;;;;;13.70;11.30;;;22.80;1.00;;;;;;4931222;29;20176;-74
2022/07/25 03:50:12;;;;;;;14.43;11.93;;;22.60;1.00;;;;;;4931179;29;20196;-74
2022/07/25 03:52:38;;;;;;;13.10;11.23;;;22.40;1.00;;;;;;4945385;29;20172;-74
2022/07/25 03:55:06;;;;;;;12.57;11.17;;;22.40;1.00;;;;;;4931111;29;20180;-75
2022/07/25 03:57:31;;;;;;;13.97;11.07;;;22.30;1.00;;;;;;4930910;29;20173;-75
2022/07/25 03:59:57;;;;;;;12.60;11.20;;;22.20;1.00;;;;;;4931294;29;20448;-74
2022/07/25 04:02:23;;;;;;;13.50;11.30;;;22.20;1.00;;;;;;4929226;29;20274;-74
2022/07/25 04:04:49;;;;;;;17.60;11.67;;;22.20;1.00;;;;;;4930399;29;20408;-74
2022/07/25 04:07:15;;;;;;;14.20;11.23;;;22.10;1.00;;;;;;4928579;29;20173;-74
2022/07/25 04:09:41;;;;;;;16.07;11.57;;;22.00;1.00;;;;;;4929696;29;20631;-74
2022/07/25 04:12:06;;;;;;;17.13;13.83;;;21.90;1.00;;;;;;4929297;29;20604;-74
2022/07/25 04:14:32;;;;;;;17.10;12.40;;;21.80;1.00;;;;;;4931863;29;20571;-74
2022/07/25 04:16:57;;;;;;;15.60;11.37;;;21.80;1.00;;;;;;4928824;29;20549;-74
2022/07/25 04:19:23;;;;;;;14.10;11.07;;;21.80;1.00;;;;;;4945119;29;20221;-74
2022/07/25 04:21:48;;;;;;;15.00;11.20;;;21.80;1.00;;;;;;4927510;29;20295;-74
2022/07/25 04:24:14;;;;;;;14.43;11.40;;;21.80;1.00;;;;;;4944840;29;20206;-74
2022/07/25 04:26:39;;;;;;;12.90;11.57;;;21.90;1.00;;;;;;4932693;29;20279;-73
2022/07/25 04:29:05;;;;;;;13.60;11.30;;;22.00;1.00;;;;;;4935507;29;20196;-74
2022/07/25 04:31:30;;;;;;;14.17;11.60;;;22.10;1.00;;;;;;4932754;29;20224;-74
2022/07/25 04:33:56;;;;;;;13.50;11.30;;;22.10;1.00;;;;;;4946085;29;20180;-73
2022/07/25 04:36:21;;;;;;;12.83;11.13;;;22.20;1.00;;;;;;4935235;29;20242;-74
2022/07/25 04:38:47;;;;;;;12.70;10.83;;;22.20;1.00;;;;;;4948619;29;20177;-74
2022/07/25 04:41:12;;;;;;;12.80;11.40;;;22.20;1.00;;;;;;4933624;29;20278;-74
2022/07/25 04:43:38;;;;;;;16.27;11.87;;;22.30;1.00;;;;;;4934464;29;20180;-74
2022/07/25 04:46:03;;;;;;;13.67;11.73;;;22.40;1.00;;;;;;4934761;29;20216;-74
2022/07/25 04:48:29;;;;;;;15.67;11.70;;;22.40;1.00;;;;;;4935552;29;20172;-75
2022/07/25 04:50:54;;;;;;;15.13;11.47;;;22.50;1.00;;;;;;4931577;29;20213;-74
2022/07/25 04:53:20;;;;;;;15.80;11.93;;;22.60;1.00;;;;;;4949500;29;20223;-74
2022/07/25 04:55:45;;;;;;;13.50;11.77;;;22.60;1.00;;;;;;4933332;29;20181;-74
2022/07/25 04:58:11;;;;;;;12.40;11.10;;;22.80;1.00;;;;;;4935296;29;20185;-74
2022/07/25 05:00:37;;;;;;;13.17;11.33;;;22.70;1.00;;;;;;4931476;29;20303;-74
2022/07/25 05:03:02;;;;;;;17.77;11.17;;;22.80;1.00;;;;;;4934720;29;20177;-74
2022/07/25 05:05:28;;;;;;;13.10;11.67;;;22.80;1.00;;;;;;4948226;29;20180;-74
2022/07/25 05:07:58;;;;;;;12.67;11.30;;;22.80;1.00;;;;;;4924070;28;20667;-74
2022/07/25 05:10:25;;;;;;;15.00;11.63;;;22.90;1.00;;;;;;4926254;29;20351;-74
2022/07/25 05:12:51;;;;;;;16.63;11.47;;;23.00;1.00;;;;;;4948197;29;20428;-74
2022/07/25 05:15:17;;;;;;;12.30;11.00;;;23.00;1.00;;;;;;4932616;29;20428;-74
2022/07/25 05:17:43;;;;;;;16.60;11.73;;;23.20;1.00;;;;;;4931966;29;20702;-74
2022/07/25 05:20:09;;;;;;;12.93;11.47;;;23.40;1.00;;;;;;4932003;29;20255;-74
2022/07/25 05:22:35;;;;;;;12.77;10.37;;;23.60;1.00;;;;;;4933514;29;20202;-74
2022/07/25 05:25:03;;;;;;;13.73;11.53;;;23.80;1.00;;;;;;4933966;29;20437;-74
2022/07/25 05:27:28;;;;;;;14.67;11.90;;;24.00;1.00;;;;;;4933505;29;20183;-74
2022/07/25 05:29:54;;;;;;;14.87;11.00;;;24.30;1.00;;;;;;4932192;29;20525;-74
2022/07/25 05:32:19;;;;;;;28.27;12.60;;;24.30;1.00;;;;;;4932400;29;20208;-74
2022/07/25 05:34:45;;;;;;;13.23;11.30;;;24.40;1.00;;;;;;4930137;29;20576;-74
2022/07/25 05:37:10;;;;;;;14.53;11.00;;;24.50;1.00;;;;;;4946068;29;20184;-74
2022/07/25 05:39:38;;;;;;;18.67;11.50;;;24.60;1.00;;;;;;4947689;29;20282;-74
2022/07/25 05:42:05;;;;;;;15.60;12.40;;;24.70;1.00;;;;;;4946026;28;20283;-74
2022/07/25 05:44:31;;;;;;;13.60;11.80;;;24.80;1.00;;;;;;4928564;29;20454;-74
2022/07/25 05:46:56;;;;;;;12.80;11.40;;;24.90;1.00;;;;;;4932051;29;20682;-74
2022/07/25 05:49:22;;;;;;;16.53;11.90;;;25.00;1.00;;;;;;4933646;29;20596;-74
2022/07/25 05:51:47;;;;;;;11.80;10.60;;;25.10;1.00;;;;;;4932585;29;20288;-74
2022/07/25 05:54:13;;;;;;;13.80;11.40;;;25.30;1.00;;;;;;4948387;29;20216;-74
2022/07/25 05:56:38;;;;;;;14.43;11.67;;;25.30;1.00;;;;;;4930849;29;20189;-74
2022/07/25 05:59:04;;;;;;;15.90;11.30;;;25.30;1.00;;;;;;4931686;29;20217;-74
2022/07/25 06:01:29;;;;;;;16.10;11.67;;;25.40;1.00;;;;;;4926733;29;20201;-74
2022/07/25 06:03:55;;;;;;;14.17;11.80;;;25.40;1.00;;;;;;4930181;29;20199;-74
2022/07/25 06:06:20;;;;;;;14.70;11.10;;;25.50;1.00;;;;;;4933257;29;20498;-74
2022/07/25 06:08:45;;;;;;;13.47;11.13;;;25.50;1.00;;;;;;4933332;29;20193;-74
2022/07/25 06:11:11;;;;;;;11.80;10.33;;;25.60;1.00;;;;;;4927965;29;20913;-75
2022/07/25 06:13:36;;;;;;;13.33;11.70;;;25.70;1.00;;;;;;4930340;29;20208;-75
2022/07/25 06:16:02;;;;;;;13.60;11.43;;;25.70;1.00;;;;;;4935330;29;20264;-75
2022/07/25 06:18:28;;;;;;;13.73;11.37;;;25.70;1.00;;;;;;4930728;29;20200;-75
2022/07/25 06:20:53;;;;;;;14.43;10.90;;;25.70;1.00;;;;;;4927257;29;20691;-75
2022/07/25 06:23:19;;;;;;;13.30;11.60;;;25.70;1.00;;;;;;4927717;29;20185;-75
2022/07/25 06:25:45;;;;;;;14.23;11.40;;;25.80;1.00;;;;;;4947081;29;20173;-75
2022/07/25 06:28:13;;;;;;;21.93;11.97;;;25.90;1.00;;;;;;4931855;29;20184;-75
2022/07/25 06:30:39;;;;;;;15.85;11.25;;;25.90;1.00;;;;;;4931218;29;20880;-74
2022/07/25 06:33:05;;;;;;;13.67;12.17;;;26.00;1.00;;;;;;4924728;29;20221;-73
2022/07/25 06:35:30;;;;;;;14.03;11.23;;;26.10;1.00;;;;;;4924036;29;20574;-74
2022/07/25 06:37:56;;;;;;;13.30;11.57;;;26.10;1.00;;;;;;4930388;29;20191;-73
2022/07/25 06:40:21;;;;;;;14.37;11.97;;;26.10;1.00;;;;;;4928424;29;20208;-74
2022/07/25 06:42:47;;;;;;;16.27;12.43;;;26.20;1.00;;;;;;4930665;29;20237;-75
2022/07/25 06:45:14;;;;;;;13.30;10.80;;;26.20;1.00;;;;;;4926693;29;20187;-74
2022/07/25 06:47:41;;;;;;;13.80;10.87;;;26.40;1.00;;;;;;4925339;29;20275;-74
2022/07/25 06:50:08;;;;;;;15.60;12.43;;;26.50;1.00;;;;;;4934050;29;20455;-74
2022/07/25 06:52:34;;;;;;;16.90;11.30;;;26.50;1.00;;;;;;4934588;29;20215;-74
2022/07/25 06:55:01;;;;;;;15.67;11.87;;;26.50;1.00;;;;;;4934598;29;20456;-74
2022/07/25 06:57:26;;;;;;;16.17;11.87;;;26.60;1.00;;;;;;4934021;28;20656;-73
2022/07/25 06:59:52;;;;;;;11.93;10.43;;;26.80;1.00;;;;;;4931397;29;20475;-73
2022/07/25 07:02:17;;;;;;;15.20;12.40;;;26.90;1.00;;;;;;4930642;29;20710;-74
2022/07/25 07:04:43;;;;;;;11.07;9.93;;;27.00;1.00;;;;;;4931368;29;20176;-73
2022/07/25 07:07:08;;;;;;;14.13;11.13;;;27.00;1.00;;;;;;4929965;29;20223;-74
2022/07/25 07:09:34;;;;;;;14.30;10.73;;;27.10;1.00;;;;;;4930716;29;20195;-74
2022/07/25 07:11:59;;;;;;;12.63;11.27;;;27.20;1.00;;;;;;4941867;29;20334;-74
2022/07/25 07:14:25;;;;;;;12.93;11.37;;;27.30;1.00;;;;;;4926126;29;20791;-73
2022/07/25 07:16:50;;;;;;;14.07;10.93;;;27.50;1.00;;;;;;4928516;29;20191;-73
2022/07/25 07:19:16;;;;;;;17.17;11.17;;;27.70;1.00;;;;;;4925550;29;20197;-73
2022/07/25 07:21:42;;;;;;;13.43;11.40;;;27.80;1.00;;;;;;4929181;29;20420;-74
2022/07/25 07:24:08;;;;;;;12.03;10.80;;;27.90;1.00;;;;;;4929485;29;20747;-74
2022/07/25 07:26:33;;;;;;;15.73;11.10;;;28.00;1.00;;;;;;4945325;29;20184;-73
2022/07/25 07:29:01;;;;;;;20.77;10.73;;;28.10;1.00;;;;;;4927642;29;20177;-73
2022/07/25 07:31:27;;;;;;;13.50;11.60;;;28.20;1.00;;;;;;4930612;29;20224;-74
2022/07/25 07:33:52;;;;;;;12.33;11.03;;;28.10;1.00;;;;;;4930779;29;20244;-73
2022/07/25 07:36:18;;;;;;;14.23;11.33;;;28.20;1.00;;;;;;4942174;29;20185;-74
2022/07/25 07:38:43;;;;;;;15.47;11.30;;;28.50;1.00;;;;;;4923895;29;20177;-74
2022/07/25 07:41:09;;;;;;;12.63;11.30;;;28.80;1.00;;;;;;4928903;29;20295;-73
2022/07/25 07:43:35;;;;;;;13.07;11.77;;;29.00;1.00;;;;;;4931783;29;20416;-74
2022/07/25 07:46:01;;;;;;;17.13;11.40;;;29.40;1.00;;;;;;4929400;29;20503;-74
2022/07/25 07:48:27;;;;;;;12.30;10.93;;;29.70;1.00;;;;;;4931967;29;20263;-74
2022/07/25 07:50:53;;;;;;;11.90;10.70;;;30.00;1.00;;;;;;4944380;28;20367;-73
2022/07/25 07:53:18;;;;;;;14.30;11.40;;;30.10;1.00;;;;;;4929980;29;20703;-74
2022/07/25 07:55:44;;;;;;;13.47;10.63;;;30.00;1.00;;;;;;4927182;29;20193;-73
2022/07/25 07:58:18;;;;;;;14.63;11.17;;;29.90;1.00;;;;;;4930114;29;20188;-74
2022/07/25 08:00:46;;;;;;;14.43;11.43;;;30.00;1.00;;;;;;4895463;29;1022193;-73
2022/07/25 08:03:12;;;;;;;14.98;11.38;;;29.90;1.00;;;;;;4931361;29;20214;-74
2022/07/25 08:05:41;;;;;;;15.60;11.37;;;29.80;1.00;;;;;;4929403;29;20188;-74
2022/07/25 08:08:08;;;;;;;16.92;11.20;;;30.10;1.00;;;;;;4929414;29;20648;-74
2022/07/25 08:10:37;;;;;;;13.60;10.98;;;30.30;1.00;;;;;;4931463;29;20215;-74
2022/07/25 08:13:13;;;;;;;12.95;11.07;;;30.60;1.00;;;;;;4931191;29;20647;-74
2022/07/25 08:15:38;;;;;;;13.27;11.65;;;30.90;1.00;;;;;;4931227;29;20204;-74
2022/07/25 08:18:04;;;;;;;12.52;11.30;;;31.00;1.00;;;;;;4932794;29;20540;-74
2022/07/25 08:20:30;;;;;;;13.23;11.60;;;31.00;1.00;;;;;;4928725;29;20212;-75
2022/07/25 08:22:55;;;;;;;12.85;11.40;;;31.20;1.00;;;;;;4926375;29;20610;-74
2022/07/25 08:25:21;;;;;;;13.43;11.88;;;31.50;1.00;;;;;;4931857;29;20723;-75
2022/07/25 08:27:48;;;;;;;15.25;11.73;;;31.60;1.00;;;;;;4930664;29;20184;-75
2022/07/25 08:30:14;;;;;;;14.02;11.40;;;31.70;1.00;;;;;;4946818;28;20275;-75
2022/07/25 08:32:48;;;;;;;12.18;10.75;;;31.90;1.00;;;;;;4930246;29;20191;-74
2022/07/25 08:35:14;;;;;;;11.80;10.52;;;32.10;1.00;;;;;;4931543;29;20181;-74
2022/07/25 08:37:39;;;;;;;13.27;10.90;;;32.10;1.00;;;;;;4944774;29;20177;-74
2022/07/25 08:40:05;;;;;;;14.00;11.98;;;32.10;1.00;;;;;;4932587;29;20330;-74
2022/07/25 08:42:33;;;;;;;16.33;10.95;;;32.10;1.00;;;;;;4929282;29;20678;-75
2022/07/25 08:45:03;;;;;;;12.65;11.30;;;32.30;1.00;;;;;;4945554;28;20271;-75
2022/07/25 08:47:29;;;;;;;11.40;10.30;;;32.30;1.00;;;;;;4932123;29;20173;-73
2022/07/25 08:49:55;;;;;;;11.63;10.18;;;32.70;1.00;;;;;;4943837;29;20181;-73
2022/07/25 08:52:22;;;;;;;11.80;10.50;;;32.80;1.00;;;;;;4930501;29;20169;-74
2022/07/25 08:54:48;;;;;;;11.77;10.48;;;33.20;1.00;;;;;;4930725;29;20256;-73
2022/07/25 08:57:14;;;;;;;11.65;9.82;;;33.80;1.00;;;;;;4923194;28;20212;-74
2022/07/25 08:59:40;;;;;;;12.68;10.02;;;34.10;1.00;;;;;;4940644;29;20181;-74
2022/07/25 09:02:09;;;;;;;11.52;10.38;;;35.10;1.00;;;;;;4931562;29;20259;-74
2022/07/25 09:04:35;;;;;;;11.98;10.27;;;35.70;1.00;;;;;;4930542;29;20739;-75
2022/07/25 09:07:03;;;;;;;13.23;10.50;;;35.70;1.00;;;;;;4931333;29;20640;-74
2022/07/25 09:09:37;;;;;;;12.70;9.73;;;36.10;1.00;;;;;;4937001;29;20173;-75
2022/07/25 09:12:04;;;;;;;11.13;9.82;;;37.00;1.00;;;;;;4943710;29;20252;-75
2022/07/25 09:14:29;;;;;;;10.50;9.45;;;38.10;1.00;;;;;;4934518;29;20184;-75
2022/07/25 09:16:55;;;;;;;10.70;9.68;;;38.50;1.00;;;;;;4934201;29;20193;-75
2022/07/25 09:19:23;;;;;;;11.10;9.18;;;38.90;1.00;;;;;;4932520;29;20339;-75
2022/07/25 09:22:06;;;;;;;9.95;9.02;;;39.30;1.00;;;;;;4934904;29;20366;-75
2022/07/25 09:24:33;;;;;;;12.65;8.88;;;40.10;1.00;;;;;;4932383;29;20253;-76
2022/07/25 09:27:09;;;;;;;9.75;8.75;;;40.30;1.00;;;;;;4933479;29;20296;-76
2022/07/25 09:29:37;;;;;;;12.43;8.85;;;40.60;1.00;;;;;;4934457;29;20600;-76
2022/07/25 09:32:14;;;;;;;11.50;8.82;;;41.10;1.00;;;;;;4931488;29;20203;-76
2022/07/25 09:34:42;;;;;;;9.50;8.60;;;41.40;1.00;;;;;;4947683;29;20598;-76
2022/07/25 09:37:11;;;;;;;9.82;8.93;;;41.90;1.00;;;;;;4916888;29;20248;-76
2022/07/25 09:39:41;;;;;;;10.00;8.95;;;41.40;1.00;;;;;;4933952;29;20255;-76
2022/07/25 09:42:28;;;;;;;10.80;8.43;;;40.80;1.00;;;;;;4933882;29;20299;-76
2022/07/25 09:45:12;;;;;;;9.15;8.25;;;40.90;1.00;;;;;;4934432;29;20185;-76
2022/07/25 09:47:52;;;;;;;9.63;8.50;;;42.10;1.00;;;;;;4932535;29;20532;-76
2022/07/25 09:50:19;;;;;;;10.55;8.10;;;42.50;1.00;;;;;;4948005;29;22598;-76
2022/07/25 09:52:45;;;;;;;11.68;8.43;;;42.90;1.00;;;;;;4934373;29;20218;-77
2022/07/25 09:55:12;;;;;;;10.82;8.63;;;43.10;1.00;;;;;;4948803;29;20390;-76
2022/07/25 09:57:39;;;;;;;8.30;7.50;;;43.20;1.00;;;;;;4931537;29;20191;-77
2022/07/25 10:00:06;;;;;;;9.15;8.07;;;44.40;1.00;;;;;;4933289;29;20196;-77
2022/07/25 10:02:49;;;;;;;8.73;7.75;;;44.50;1.00;;;;;;4929355;29;20297;-77
2022/07/25 10:05:22;;;;;;;9.15;8.13;;;44.40;1.00;;;;;;4927349;29;20180;-77
2022/07/25 10:07:51;;;;;;;9.20;7.60;;;44.30;1.00;;;;;;4931293;29;20552;-77
2022/07/25 10:10:40;;;;;;;8.43;7.63;;;44.50;1.00;;;;;;4934264;29;20231;-77
2022/07/25 10:13:12;;;;;;;8.52;7.75;;;44.60;1.00;;;;;;4926651;29;20200;-77
2022/07/25 10:15:48;;;;;;;9.70;8.10;;;43.80;1.00;;;;;;4930596;29;20184;-77
2022/07/25 10:18:15;;;;;;;8.40;7.60;;;44.20;1.00;;;;;;4933595;29;20776;-77
2022/07/25 10:20:42;;;;;;;8.10;7.40;;;44.90;1.00;;;;;;4945523;28;20219;-77
2022/07/25 10:23:26;;;;;;;8.52;7.72;;;45.30;1.00;;;;;;4932843;29;20547;-77
2022/07/25 10:26:06;;;;;;;10.27;7.85;;;45.60;1.00;;;;;;4926618;29;20184;-77
2022/07/25 10:28:53;;;;;;;8.90;8.05;;;45.40;1.00;;;;;;4923759;29;20209;-76
2022/07/25 10:31:23;;;;;;;12.10;8.90;;;43.60;1.00;;;;;;4932699;29;20204;-76
2022/07/25 10:33:51;;;;;;;9.30;8.20;;;41.40;1.00;;;;;;4932067;29;20272;-75
2022/07/25 10:36:17;;;;;;;8.93;7.93;;;40.00;1.00;;;;;;4938579;28;20799;-77
2022/07/25 10:38:45;;;;;;;10.15;8.80;;;39.20;1.00;;;;;;4933246;29;20548;-76
2022/07/25 10:41:15;;;;;;;10.57;8.60;;;39.20;1.00;;;;;;4932185;29;20614;-76
2022/07/25 10:43:44;;;;;;;9.18;8.07;;;39.70;1.00;;;;;;4932957;29;20173;-77
2022/07/25 10:46:19;;;;;;;9.13;8.25;;;40.10;1.00;;;;;;4932362;29;20664;-76
2022/07/25 10:48:55;;;;;;;9.15;8.25;;;39.50;1.00;;;;;;4933695;29;20176;-76
2022/07/25 10:51:26;;;;;;;8.75;7.85;;;39.30;1.00;;;;;;4932215;29;20200;-76
2022/07/25 10:53:51;;;;;;;9.70;8.27;;;39.60;1.00;;;;;;4926757;29;20268;-77
2022/07/25 10:56:19;;;;;;;8.90;8.00;;;39.90;1.00;;;;;;4925535;29;20177;-76
2022/07/25 10:58:47;;;;;;;8.23;7.43;;;40.30;1.00;;;;;;4947369;29;20263;-76
2022/07/25 11:01:18;;;;;;;8.60;7.65;;;40.90;1.00;;;;;;4932150;29;20207;-76
2022/07/25 11:03:43;;;;;;;8.27;7.47;;;41.40;1.00;;;;;;4926388;29;20639;-76
2022/07/25 11:06:11;;;;;;;9.15;8.00;;;42.20;1.00;;;;;;4927796;29;20192;-77
2022/07/25 11:08:36;;;;;;;8.30;7.50;;;42.70;1.00;;;;;;4932471;29;20187;-77
2022/07/25 11:11:02;;;;;;;8.63;7.72;;;42.50;1.00;;;;;;4932546;29;20205;-76
2022/07/25 11:13:27;;;;;;;7.70;6.93;;;42.10;1.00;;;;;;4929755;29;20192;-77
2022/07/25 11:15:59;;;;;;;8.60;7.80;;;41.90;1.00;;;;;;4946230;28;20188;-76
2022/07/25 11:18:36;;;;;;;8.02;6.90;;;41.60;1.00;;;;;;4932620;29;20185;-76
2022/07/25 11:21:03;;;;;;;8.43;6.88;;;41.20;1.00;;;;;;4924116;29;20299;-77
2022/07/25 11:23:29;;;;;;;7.15;6.38;;;40.30;1.00;;;;;;4947559;29;20175;-76
2022/07/25 11:26:05;;;;;;;7.85;7.05;;;40.00;1.00;;;;;;4944830;29;20189;-76
2022/07/25 11:28:43;;;;;;;9.48;8.57;;;39.60;1.00;;;;;;4930803;29;20185;-76
2022/07/25 11:31:09;;;;;;;9.65;8.02;;;39.40;1.00;;;;;;4947082;28;20579;-75
2022/07/25 11:33:39;;;;;;;9.65;7.70;;;39.50;1.00;;;;;;4945183;28;20187;-75
2022/07/25 11:36:06;;;;;;;8.95;8.05;;;39.50;1.00;;;;;;4930044;28;20184;-76
2022/07/25 11:38:32;;;;;;;9.68;8.68;;;39.00;1.00;;;;;;4931307;29;20642;-76
2022/07/25 11:40:58;;;;;;;9.70;8.70;;;37.90;1.00;;;;;;4931680;29;20549;-76
2022/07/25 11:43:24;;;;;;;9.80;8.77;;;37.40;1.00;;;;;;4931270;29;20183;-76
2022/07/25 11:46:02;;;;;;;11.57;8.40;;;37.30;1.00;;;;;;4938124;29;20180;-76
2022/07/25 11:48:37;;;;;;;10.70;8.90;;;36.80;1.00;;;;;;4947586;29;20165;-76
2022/07/25 11:51:14;;;;;;;10.20;8.68;;;36.90;1.00;;;;;;4944607;28;20262;-76
2022/07/25 11:53:45;;;;;;;10.00;9.00;;;37.10;1.00;;;;;;4921811;29;20510;-76
2022/07/25 11:56:16;;;;;;;9.38;8.30;;;37.10;1.00;;;;;;4929215;29;20566;-76
2022/07/25 11:58:43;;;;;;;10.20;8.30;;;37.60;1.00;;;;;;4946766;29;20208;-76
2022/07/25 12:01:14;;;;;;;10.38;8.15;;;38.00;1.00;;;;;;4930914;29;20239;-76
2022/07/25 12:03:40;;;;;;;10.40;7.97;;;39.10;1.00;;;;;;4931338;29;20281;-77
2022/07/25 12:06:10;;;;;;;8.60;7.70;;;39.70;1.00;;;;;;4930105;29;20569;-77
2022/07/25 12:08:38;;;;;;;9.10;8.20;;;40.40;1.00;;;;;;4932875;29;20169;-78
2022/07/25 12:11:03;;;;;;;8.80;7.70;;;42.10;1.00;;;;;;4931419;29;20201;-76
2022/07/25 12:13:29;;;;;;;9.73;8.10;;;42.60;1.00;;;;;;4932406;29;20176;-76
2022/07/25 12:15:57;;;;;;;13.75;8.00;;;43.80;1.00;;;;;;4931172;29;20188;-77
2022/07/25 12:18:22;;;;;;;8.27;6.95;;;43.60;1.00;;;;;;4932569;29;20233;-77
2022/07/25 12:20:48;;;;;;;8.52;7.60;;;43.60;1.00;;;;;;4944361;28;20228;-78
2022/07/25 12:23:14;;;;;;;8.65;7.85;;;42.70;1.00;;;;;;4932187;29;20180;-78
2022/07/25 12:25:45;;;;;;;8.80;7.93;;;42.10;1.00;;;;;;4931724;29;20263;-77
2022/07/25 12:28:11;;;;;;;9.15;8.35;;;41.60;1.00;;;;;;4930503;29;20227;-77
2022/07/25 12:30:38;;;;;;;9.05;7.90;;;42.00;1.00;;;;;;4931617;29;20715;-77
2022/07/25 12:33:05;;;;;;;8.95;8.05;;;42.20;1.00;;;;;;4932012;29;20625;-78
2022/07/25 12:35:31;;;;;;;9.10;8.23;;;42.30;1.00;;;;;;4946298;29;20173;-78
2022/07/25 12:37:57;;;;;;;9.10;8.10;;;42.70;1.00;;;;;;4939061;28;20176;-77
2022/07/25 12:40:23;;;;;;;9.57;8.50;;;42.10;1.00;;;;;;4930908;29;20211;-76
2022/07/25 12:42:49;;;;;;;13.20;9.45;;;40.80;1.00;;;;;;4932949;29;20235;-76
2022/07/25 12:45:16;;;;;;;9.20;8.30;;;40.80;1.00;;;;;;4929869;29;20259;-76